sensor_id;sensor_type;location;lat;lon;timestamp;pressure;altitude;pressure_sealevel;temperature
10058;BMP180;5068;51.286;7.518;2023-06-22T00:00:16;99650.00;;;21.70
10058;BMP180;5068;51.286;7.518;2023-06-22T00:01:49;99643.00;;;21.60
10058;BMP180;5068;51.286;7.518;2023-06-22T00:03:24;99647.00;;;21.60
10058;BMP180;5068;51.286;7.518;2023-06-22T00:04:57;99645.00;;;21.60
10058;BMP180;5068;51.286;7.518;2023-06-22T00:06:32;99641.00;;;21.60
10058;BMP180;5068;51.286;7.518;2023-06-22T00:08:06;99632.00;;;21.60
10058;BMP180;5068;51.286;7.518;2023-06-22T00:09:39;99642.00;;;21.60
10058;BMP180;5068;51.286;7.518;2023-06-22T00:11:13;99637.00;;;21.60
10058;BMP180;5068;51.286;7.518;2023-06-22T00:12:46;99640.00;;;21.60
10058;BMP180;5068;51.286;7.518;2023-06-22T00:14:18;99635.00;;;21.60
10058;BMP180;5068;51.286;7.518;2023-06-22T00:15:52;99639.00;;;21.60
10058;BMP180;5068;51.286;7.518;2023-06-22T00:17:24;99642.00;;;21.60
10058;BMP180;5068;51.286;7.518;2023-06-22T00:18:58;99637.00;;;21.60
10058;BMP180;5068;51.286;7.518;2023-06-22T00:20:32;99634.00;;;21.60
10058;BMP180;5068;51.286;7.518;2023-06-22T00:22:10;99623.00;;;21.60
10058;BMP180;5068;51.286;7.518;2023-06-22T00:23:44;99635.00;;;21.60
10058;BMP180;5068;51.286;7.518;2023-06-22T00:25:17;99632.00;;;21.60
10058;BMP180;5068;51.286;7.518;2023-06-22T00:26:51;99636.00;;;21.60
10058;BMP180;5068;51.286;7.518;2023-06-22T00:28:24;99625.00;;;21.60
10058;BMP180;5068;51.286;7.518;2023-06-22T00:29:58;99623.00;;;21.60
10058;BMP180;5068;51.286;7.518;2023-06-22T00:31:32;99632.00;;;21.50
10058;BMP180;5068;51.286;7.518;2023-06-22T00:33:06;99623.00;;;21.50
10058;BMP180;5068;51.286;7.518;2023-06-22T00:34:40;99630.00;;;21.50
10058;BMP180;5068;51.286;7.518;2023-06-22T00:36:13;99630.00;;;21.50
10058;BMP180;5068;51.286;7.518;2023-06-22T00:37:49;99627.00;;;21.50
10058;BMP180;5068;51.286;7.518;2023-06-22T00:39:25;99626.00;;;21.40
10058;BMP180;5068;51.286;7.518;2023-06-22T00:40:58;99622.00;;;21.40
10058;BMP180;5068;51.286;7.518;2023-06-22T00:42:32;99632.00;;;21.40
10058;BMP180;5068;51.286;7.518;2023-06-22T00:44:05;99619.00;;;21.40
10058;BMP180;5068;51.286;7.518;2023-06-22T00:45:39;99630.00;;;21.40
10058;BMP180;5068;51.286;7.518;2023-06-22T00:47:13;99621.00;;;21.40
10058;BMP180;5068;51.286;7.518;2023-06-22T00:48:48;99615.00;;;21.40
10058;BMP180;5068;51.286;7.518;2023-06-22T00:50:24;99625.00;;;21.30
10058;BMP180;5068;51.286;7.518;2023-06-22T00:51:58;99628.00;;;21.30
10058;BMP180;5068;51.286;7.518;2023-06-22T00:53:34;99620.00;;;21.30
10058;BMP180;5068;51.286;7.518;2023-06-22T00:55:09;99628.00;;;21.30
10058;BMP180;5068;51.286;7.518;2023-06-22T00:56:42;99637.00;;;21.30
10058;BMP180;5068;51.286;7.518;2023-06-22T00:58:16;99639.00;;;21.30
10058;BMP180;5068;51.286;7.518;2023-06-22T00:59:49;99642.00;;;21.30
10058;BMP180;5068;51.286;7.518;2023-06-22T01:01:22;99645.00;;;21.30
10058;BMP180;5068;51.286;7.518;2023-06-22T01:02:56;99647.00;;;21.30
10058;BMP180;5068;51.286;7.518;2023-06-22T01:04:35;99638.00;;;21.30
10058;BMP180;5068;51.286;7.518;2023-06-22T01:06:22;99640.00;;;21.30
10058;BMP180;5068;51.286;7.518;2023-06-22T01:08:22;99633.00;;;21.30
10058;BMP180;5068;51.286;7.518;2023-06-22T01:10:07;99645.00;;;21.30
10058;BMP180;5068;51.286;7.518;2023-06-22T01:11:46;99637.00;;;21.30
10058;BMP180;5068;51.286;7.518;2023-06-22T01:13:32;99639.00;;;21.30
10058;BMP180;5068;51.286;7.518;2023-06-22T01:15:13;99643.00;;;21.30
10058;BMP180;5068;51.286;7.518;2023-06-22T01:16:51;99636.00;;;21.20
10058;BMP180;5068;51.286;7.518;2023-06-22T01:18:29;99638.00;;;21.30
10058;BMP180;5068;51.286;7.518;2023-06-22T01:20:08;99637.00;;;21.20
10058;BMP180;5068;51.286;7.518;2023-06-22T01:21:45;99634.00;;;21.20
10058;BMP180;5068;51.286;7.518;2023-06-22T01:23:33;99634.00;;;21.20
10058;BMP180;5068;51.286;7.518;2023-06-22T01:25:19;99626.00;;;21.20
10058;BMP180;5068;51.286;7.518;2023-06-22T01:27:07;99633.00;;;21.10
10058;BMP180;5068;51.286;7.518;2023-06-22T01:28:47;99635.00;;;21.10
10058;BMP180;5068;51.286;7.518;2023-06-22T01:30:22;99631.00;;;21.10
10058;BMP180;5068;51.286;7.518;2023-06-22T01:32:00;99633.00;;;21.10
10058;BMP180;5068;51.286;7.518;2023-06-22T01:33:41;99633.00;;;21.10
10058;BMP180;5068;51.286;7.518;2023-06-22T01:35:15;99628.00;;;21.00
10058;BMP180;5068;51.286;7.518;2023-06-22T01:36:51;99635.00;;;21.00
10058;BMP180;5068;51.286;7.518;2023-06-22T01:38:27;99630.00;;;21.00
10058;BMP180;5068;51.286;7.518;2023-06-22T01:40:02;99621.00;;;21.00
10058;BMP180;5068;51.286;7.518;2023-06-22T01:41:38;99609.00;;;21.00
10058;BMP180;5068;51.286;7.518;2023-06-22T01:43:14;99615.00;;;21.00
10058;BMP180;5068;51.286;7.518;2023-06-22T01:44:48;99609.00;;;21.00
10058;BMP180;5068;51.286;7.518;2023-06-22T01:46:22;99613.00;;;21.00
10058;BMP180;5068;51.286;7.518;2023-06-22T01:47:58;99606.00;;;21.10
10058;BMP180;5068;51.286;7.518;2023-06-22T01:49:33;99613.00;;;21.10
10058;BMP180;5068;51.286;7.518;2023-06-22T01:51:05;99607.00;;;21.10
10058;BMP180;5068;51.286;7.518;2023-06-22T01:52:39;99609.00;;;21.10
10058;BMP180;5068;51.286;7.518;2023-06-22T01:54:12;99615.00;;;21.10
10058;BMP180;5068;51.286;7.518;2023-06-22T01:55:46;99617.00;;;21.10
10058;BMP180;5068;51.286;7.518;2023-06-22T01:57:19;99610.00;;;21.10
10058;BMP180;5068;51.286;7.518;2023-06-22T01:59:11;99622.00;;;21.10
10058;BMP180;5068;51.286;7.518;2023-06-22T02:00:54;99615.00;;;21.10
10058;BMP180;5068;51.286;7.518;2023-06-22T02:02:37;99615.00;;;21.00
10058;BMP180;5068;51.286;7.518;2023-06-22T02:04:19;99604.00;;;21.00
10058;BMP180;5068;51.286;7.518;2023-06-22T02:06:03;99619.00;;;21.00
10058;BMP180;5068;51.286;7.518;2023-06-22T02:07:54;99603.00;;;21.00
10058;BMP180;5068;51.286;7.518;2023-06-22T02:09:31;99599.00;;;21.00
10058;BMP180;5068;51.286;7.518;2023-06-22T02:11:08;99611.00;;;21.00
10058;BMP180;5068;51.286;7.518;2023-06-22T02:12:43;99605.00;;;21.00
10058;BMP180;5068;51.286;7.518;2023-06-22T02:14:18;99607.00;;;21.00
10058;BMP180;5068;51.286;7.518;2023-06-22T02:15:53;99615.00;;;21.00
10058;BMP180;5068;51.286;7.518;2023-06-22T02:17:28;99602.00;;;21.00
10058;BMP180;5068;51.286;7.518;2023-06-22T02:19:06;99609.00;;;21.00
10058;BMP180;5068;51.286;7.518;2023-06-22T02:20:40;99608.00;;;21.00
10058;BMP180;5068;51.286;7.518;2023-06-22T02:22:14;99612.00;;;21.00
10058;BMP180;5068;51.286;7.518;2023-06-22T02:23:49;99595.00;;;21.00
10058;BMP180;5068;51.286;7.518;2023-06-22T02:25:22;99606.00;;;21.00
10058;BMP180;5068;51.286;7.518;2023-06-22T02:26:55;99597.00;;;21.00
10058;BMP180;5068;51.286;7.518;2023-06-22T02:28:29;99595.00;;;21.00
10058;BMP180;5068;51.286;7.518;2023-06-22T02:30:04;99597.00;;;21.00
10058;BMP180;5068;51.286;7.518;2023-06-22T02:31:39;99594.00;;;21.00
10058;BMP180;5068;51.286;7.518;2023-06-22T02:33:12;99599.00;;;20.90
10058;BMP180;5068;51.286;7.518;2023-06-22T02:34:46;99590.00;;;20.90
10058;BMP180;5068;51.286;7.518;2023-06-22T02:36:21;99591.00;;;20.90
10058;BMP180;5068;51.286;7.518;2023-06-22T02:37:56;99596.00;;;20.90
10058;BMP180;5068;51.286;7.518;2023-06-22T02:39:30;99593.00;;;20.90
10058;BMP180;5068;51.286;7.518;2023-06-22T02:41:03;99579.00;;;20.80
10058;BMP180;5068;51.286;7.518;2023-06-22T02:42:40;99584.00;;;20.80
10058;BMP180;5068;51.286;7.518;2023-06-22T02:44:13;99573.00;;;20.80
10058;BMP180;5068;51.286;7.518;2023-06-22T02:45:47;99582.00;;;20.80
10058;BMP180;5068;51.286;7.518;2023-06-22T02:47:22;99581.00;;;20.80
10058;BMP180;5068;51.286;7.518;2023-06-22T02:48:55;99584.00;;;20.80
10058;BMP180;5068;51.286;7.518;2023-06-22T02:50:29;99581.00;;;20.70
10058;BMP180;5068;51.286;7.518;2023-06-22T02:52:04;99581.00;;;20.70
10058;BMP180;5068;51.286;7.518;2023-06-22T02:53:37;99580.00;;;20.70
10058;BMP180;5068;51.286;7.518;2023-06-22T02:55:10;99577.00;;;20.70
10058;BMP180;5068;51.286;7.518;2023-06-22T02:56:43;99572.00;;;20.70
10058;BMP180;5068;51.286;7.518;2023-06-22T02:58:17;99573.00;;;20.70
10058;BMP180;5068;51.286;7.518;2023-06-22T02:59:50;99574.00;;;20.70
10058;BMP180;5068;51.286;7.518;2023-06-22T03:01:23;99572.00;;;20.70
10058;BMP180;5068;51.286;7.518;2023-06-22T03:02:58;99574.00;;;20.70
10058;BMP180;5068;51.286;7.518;2023-06-22T03:04:32;99575.00;;;20.70
10058;BMP180;5068;51.286;7.518;2023-06-22T03:06:05;99570.00;;;20.70
10058;BMP180;5068;51.286;7.518;2023-06-22T03:07:39;99566.00;;;20.70
10058;BMP180;5068;51.286;7.518;2023-06-22T03:09:14;99569.00;;;20.70
10058;BMP180;5068;51.286;7.518;2023-06-22T03:10:47;99565.00;;;20.70
10058;BMP180;5068;51.286;7.518;2023-06-22T03:12:20;99565.00;;;20.70
10058;BMP180;5068;51.286;7.518;2023-06-22T03:13:57;99566.00;;;20.70
10058;BMP180;5068;51.286;7.518;2023-06-22T03:15:30;99562.00;;;20.70
10058;BMP180;5068;51.286;7.518;2023-06-22T03:17:04;99553.00;;;20.70
10058;BMP180;5068;51.286;7.518;2023-06-22T03:18:39;99564.00;;;20.70
10058;BMP180;5068;51.286;7.518;2023-06-22T03:20:13;99562.00;;;20.70
10058;BMP180;5068;51.286;7.518;2023-06-22T03:21:46;99562.00;;;20.60
10058;BMP180;5068;51.286;7.518;2023-06-22T03:23:19;99561.00;;;20.60
10058;BMP180;5068;51.286;7.518;2023-06-22T03:24:53;99556.00;;;20.60
10058;BMP180;5068;51.286;7.518;2023-06-22T03:26:27;99548.00;;;20.60
10058;BMP180;5068;51.286;7.518;2023-06-22T03:28:02;99550.00;;;20.60
10058;BMP180;5068;51.286;7.518;2023-06-22T03:29:35;99557.00;;;20.60
10058;BMP180;5068;51.286;7.518;2023-06-22T03:31:09;99556.00;;;20.60
10058;BMP180;5068;51.286;7.518;2023-06-22T03:32:43;99556.00;;;20.60
10058;BMP180;5068;51.286;7.518;2023-06-22T03:34:20;99555.00;;;20.50
10058;BMP180;5068;51.286;7.518;2023-06-22T03:35:56;99549.00;;;20.50
10058;BMP180;5068;51.286;7.518;2023-06-22T03:37:30;99548.00;;;20.50
10058;BMP180;5068;51.286;7.518;2023-06-22T03:39:03;99543.00;;;20.50
10058;BMP180;5068;51.286;7.518;2023-06-22T03:40:37;99552.00;;;20.50
10058;BMP180;5068;51.286;7.518;2023-06-22T03:42:10;99545.00;;;20.50
10058;BMP180;5068;51.286;7.518;2023-06-22T03:43:44;99553.00;;;20.50
10058;BMP180;5068;51.286;7.518;2023-06-22T03:45:17;99567.00;;;20.50
10058;BMP180;5068;51.286;7.518;2023-06-22T03:46:51;99550.00;;;20.50
10058;BMP180;5068;51.286;7.518;2023-06-22T03:48:25;99556.00;;;20.50
10058;BMP180;5068;51.286;7.518;2023-06-22T03:49:59;99557.00;;;20.50
10058;BMP180;5068;51.286;7.518;2023-06-22T03:51:37;99564.00;;;20.50
10058;BMP180;5068;51.286;7.518;2023-06-22T03:53:11;99564.00;;;20.50
10058;BMP180;5068;51.286;7.518;2023-06-22T03:54:45;99562.00;;;20.50
10058;BMP180;5068;51.286;7.518;2023-06-22T03:56:18;99560.00;;;20.50
10058;BMP180;5068;51.286;7.518;2023-06-22T03:57:53;99556.00;;;20.40
10058;BMP180;5068;51.286;7.518;2023-06-22T03:59:28;99556.00;;;20.40
10058;BMP180;5068;51.286;7.518;2023-06-22T04:01:02;99549.00;;;20.40
10058;BMP180;5068;51.286;7.518;2023-06-22T04:02:35;99549.00;;;20.40
10058;BMP180;5068;51.286;7.518;2023-06-22T04:04:09;99545.00;;;20.40
10058;BMP180;5068;51.286;7.518;2023-06-22T04:05:44;99550.00;;;20.40
10058;BMP180;5068;51.286;7.518;2023-06-22T04:07:18;99542.00;;;20.40
10058;BMP180;5068;51.286;7.518;2023-06-22T04:08:51;99548.00;;;20.40
10058;BMP180;5068;51.286;7.518;2023-06-22T04:10:24;99551.00;;;20.40
10058;BMP180;5068;51.286;7.518;2023-06-22T04:11:58;99553.00;;;20.40
10058;BMP180;5068;51.286;7.518;2023-06-22T04:13:31;99565.00;;;20.40
10058;BMP180;5068;51.286;7.518;2023-06-22T04:15:06;99560.00;;;20.40
10058;BMP180;5068;51.286;7.518;2023-06-22T04:16:39;99566.00;;;20.40
10058;BMP180;5068;51.286;7.518;2023-06-22T04:18:15;99569.00;;;20.40
10058;BMP180;5068;51.286;7.518;2023-06-22T04:19:48;99573.00;;;20.50
10058;BMP180;5068;51.286;7.518;2023-06-22T04:21:23;99578.00;;;20.50
10058;BMP180;5068;51.286;7.518;2023-06-22T04:22:56;99566.00;;;20.40
10058;BMP180;5068;51.286;7.518;2023-06-22T04:24:29;99560.00;;;20.40
10058;BMP180;5068;51.286;7.518;2023-06-22T04:26:03;99555.00;;;20.50
10058;BMP180;5068;51.286;7.518;2023-06-22T04:27:35;99548.00;;;20.50
10058;BMP180;5068;51.286;7.518;2023-06-22T04:29:12;99560.00;;;20.50
10058;BMP180;5068;51.286;7.518;2023-06-22T04:30:46;99551.00;;;20.60
10058;BMP180;5068;51.286;7.518;2023-06-22T04:32:19;99561.00;;;20.60
10058;BMP180;5068;51.286;7.518;2023-06-22T04:33:53;99555.00;;;20.60
10058;BMP180;5068;51.286;7.518;2023-06-22T04:35:26;99543.00;;;20.60
10058;BMP180;5068;51.286;7.518;2023-06-22T04:37:02;99548.00;;;20.60
10058;BMP180;5068;51.286;7.518;2023-06-22T04:38:35;99542.00;;;20.60
10058;BMP180;5068;51.286;7.518;2023-06-22T04:40:09;99545.00;;;20.60
10058;BMP180;5068;51.286;7.518;2023-06-22T04:41:45;99546.00;;;20.60
10058;BMP180;5068;51.286;7.518;2023-06-22T04:43:18;99547.00;;;20.60
10058;BMP180;5068;51.286;7.518;2023-06-22T04:44:52;99543.00;;;20.60
10058;BMP180;5068;51.286;7.518;2023-06-22T04:46:25;99549.00;;;20.70
10058;BMP180;5068;51.286;7.518;2023-06-22T04:47:58;99542.00;;;20.70
10058;BMP180;5068;51.286;7.518;2023-06-22T04:49:32;99541.00;;;20.70
10058;BMP180;5068;51.286;7.518;2023-06-22T04:51:06;99540.00;;;20.80
10058;BMP180;5068;51.286;7.518;2023-06-22T04:52:41;99528.00;;;20.80
10058;BMP180;5068;51.286;7.518;2023-06-22T04:54:15;99526.00;;;20.70
10058;BMP180;5068;51.286;7.518;2023-06-22T04:55:48;99525.00;;;20.70
10058;BMP180;5068;51.286;7.518;2023-06-22T04:57:21;99528.00;;;20.70
10058;BMP180;5068;51.286;7.518;2023-06-22T04:59:05;99535.00;;;20.80
10058;BMP180;5068;51.286;7.518;2023-06-22T05:00:38;99536.00;;;20.80
10058;BMP180;5068;51.286;7.518;2023-06-22T05:02:12;99524.00;;;20.80
10058;BMP180;5068;51.286;7.518;2023-06-22T05:03:45;99539.00;;;20.80
10058;BMP180;5068;51.286;7.518;2023-06-22T05:05:19;99541.00;;;20.80
10058;BMP180;5068;51.286;7.518;2023-06-22T05:06:54;99542.00;;;20.90
10058;BMP180;5068;51.286;7.518;2023-06-22T05:08:28;99543.00;;;20.90
10058;BMP180;5068;51.286;7.518;2023-06-22T05:10:03;99529.00;;;20.90
10058;BMP180;5068;51.286;7.518;2023-06-22T05:11:37;99540.00;;;20.90
10058;BMP180;5068;51.286;7.518;2023-06-22T05:13:10;99541.00;;;20.90
10058;BMP180;5068;51.286;7.518;2023-06-22T05:14:44;99537.00;;;20.90
10058;BMP180;5068;51.286;7.518;2023-06-22T05:16:17;99542.00;;;21.00
10058;BMP180;5068;51.286;7.518;2023-06-22T05:17:56;99546.00;;;21.00
10058;BMP180;5068;51.286;7.518;2023-06-22T05:19:30;99546.00;;;21.00
10058;BMP180;5068;51.286;7.518;2023-06-22T05:21:06;99551.00;;;21.00
10058;BMP180;5068;51.286;7.518;2023-06-22T05:22:40;99546.00;;;21.00
10058;BMP180;5068;51.286;7.518;2023-06-22T05:24:16;99546.00;;;21.00
10058;BMP180;5068;51.286;7.518;2023-06-22T05:25:50;99550.00;;;21.00
10058;BMP180;5068;51.286;7.518;2023-06-22T05:27:24;99552.00;;;21.10
10058;BMP180;5068;51.286;7.518;2023-06-22T05:28:58;99554.00;;;21.10
10058;BMP180;5068;51.286;7.518;2023-06-22T05:30:32;99546.00;;;21.10
10058;BMP180;5068;51.286;7.518;2023-06-22T05:32:07;99546.00;;;21.10
10058;BMP180;5068;51.286;7.518;2023-06-22T05:33:41;99547.00;;;21.20
10058;BMP180;5068;51.286;7.518;2023-06-22T05:35:15;99551.00;;;21.20
10058;BMP180;5068;51.286;7.518;2023-06-22T05:36:47;99561.00;;;21.30
10058;BMP180;5068;51.286;7.518;2023-06-22T05:38:20;99555.00;;;21.30
10058;BMP180;5068;51.286;7.518;2023-06-22T05:39:55;99556.00;;;21.30
10058;BMP180;5068;51.286;7.518;2023-06-22T05:41:29;99544.00;;;21.30
10058;BMP180;5068;51.286;7.518;2023-06-22T05:43:02;99552.00;;;21.40
10058;BMP180;5068;51.286;7.518;2023-06-22T05:44:36;99545.00;;;21.40
10058;BMP180;5068;51.286;7.518;2023-06-22T05:46:11;99533.00;;;21.50
10058;BMP180;5068;51.286;7.518;2023-06-22T05:47:44;99527.00;;;21.50
10058;BMP180;5068;51.286;7.518;2023-06-22T05:49:18;99532.00;;;21.50
10058;BMP180;5068;51.286;7.518;2023-06-22T05:50:54;99533.00;;;21.60
10058;BMP180;5068;51.286;7.518;2023-06-22T05:52:27;99536.00;;;21.60
10058;BMP180;5068;51.286;7.518;2023-06-22T05:54:00;99538.00;;;21.60
10058;BMP180;5068;51.286;7.518;2023-06-22T05:55:35;99537.00;;;21.70
10058;BMP180;5068;51.286;7.518;2023-06-22T05:57:07;99545.00;;;21.70
10058;BMP180;5068;51.286;7.518;2023-06-22T05:58:40;99550.00;;;21.70
10058;BMP180;5068;51.286;7.518;2023-06-22T06:00:15;99546.00;;;21.70
10058;BMP180;5068;51.286;7.518;2023-06-22T06:01:47;99551.00;;;21.70
10058;BMP180;5068;51.286;7.518;2023-06-22T06:03:22;99553.00;;;21.70
10058;BMP180;5068;51.286;7.518;2023-06-22T06:04:56;99553.00;;;21.80
10058;BMP180;5068;51.286;7.518;2023-06-22T06:06:29;99542.00;;;21.80
10058;BMP180;5068;51.286;7.518;2023-06-22T06:08:05;99536.00;;;21.80
10058;BMP180;5068;51.286;7.518;2023-06-22T06:09:39;99540.00;;;21.80
10058;BMP180;5068;51.286;7.518;2023-06-22T06:11:14;99530.00;;;21.80
10058;BMP180;5068;51.286;7.518;2023-06-22T06:12:48;99527.00;;;21.80
10058;BMP180;5068;51.286;7.518;2023-06-22T06:14:21;99525.00;;;21.80
10058;BMP180;5068;51.286;7.518;2023-06-22T06:15:54;99530.00;;;21.80
10058;BMP180;5068;51.286;7.518;2023-06-22T06:17:27;99535.00;;;21.80
10058;BMP180;5068;51.286;7.518;2023-06-22T06:19:01;99530.00;;;21.80
10058;BMP180;5068;51.286;7.518;2023-06-22T06:20:34;99530.00;;;21.90
10058;BMP180;5068;51.286;7.518;2023-06-22T06:22:07;99536.00;;;21.90
10058;BMP180;5068;51.286;7.518;2023-06-22T06:23:41;99534.00;;;21.90
10058;BMP180;5068;51.286;7.518;2023-06-22T06:25:15;99538.00;;;21.90
10058;BMP180;5068;51.286;7.518;2023-06-22T06:26:50;99531.00;;;21.90
10058;BMP180;5068;51.286;7.518;2023-06-22T06:28:48;99541.00;;;21.90
10058;BMP180;5068;51.286;7.518;2023-06-22T06:30:22;99532.00;;;21.90
10058;BMP180;5068;51.286;7.518;2023-06-22T06:31:56;99531.00;;;22.00
10058;BMP180;5068;51.286;7.518;2023-06-22T06:33:30;99531.00;;;22.00
10058;BMP180;5068;51.286;7.518;2023-06-22T06:35:05;99522.00;;;22.00
10058;BMP180;5068;51.286;7.518;2023-06-22T06:36:39;99529.00;;;22.10
10058;BMP180;5068;51.286;7.518;2023-06-22T06:38:12;99531.00;;;22.10
10058;BMP180;5068;51.286;7.518;2023-06-22T06:39:46;99534.00;;;22.10
10058;BMP180;5068;51.286;7.518;2023-06-22T06:41:19;99520.00;;;22.20
10058;BMP180;5068;51.286;7.518;2023-06-22T06:42:54;99516.00;;;22.20
10058;BMP180;5068;51.286;7.518;2023-06-22T06:44:27;99513.00;;;22.30
10058;BMP180;5068;51.286;7.518;2023-06-22T06:46:01;99521.00;;;22.30
10058;BMP180;5068;51.286;7.518;2023-06-22T06:47:35;99506.00;;;22.40
10058;BMP180;5068;51.286;7.518;2023-06-22T06:49:09;99520.00;;;22.40
10058;BMP180;5068;51.286;7.518;2023-06-22T06:50:43;99519.00;;;22.50
10058;BMP180;5068;51.286;7.518;2023-06-22T06:52:16;99509.00;;;22.50
10058;BMP180;5068;51.286;7.518;2023-06-22T06:53:51;99508.00;;;22.60
10058;BMP180;5068;51.286;7.518;2023-06-22T06:55:25;99513.00;;;22.60
10058;BMP180;5068;51.286;7.518;2023-06-22T06:56:58;99504.00;;;22.70
10058;BMP180;5068;51.286;7.518;2023-06-22T06:58:33;99507.00;;;22.70
10058;BMP180;5068;51.286;7.518;2023-06-22T07:00:09;99514.00;;;22.80
10058;BMP180;5068;51.286;7.518;2023-06-22T07:01:44;99513.00;;;22.80
10058;BMP180;5068;51.286;7.518;2023-06-22T07:03:20;99517.00;;;22.90
10058;BMP180;5068;51.286;7.518;2023-06-22T07:04:55;99519.00;;;23.00
10058;BMP180;5068;51.286;7.518;2023-06-22T07:06:28;99513.00;;;23.00
10058;BMP180;5068;51.286;7.518;2023-06-22T07:08:05;99525.00;;;23.10
10058;BMP180;5068;51.286;7.518;2023-06-22T07:09:39;99520.00;;;23.10
10058;BMP180;5068;51.286;7.518;2023-06-22T07:11:13;99509.00;;;23.20
10058;BMP180;5068;51.286;7.518;2023-06-22T07:12:46;99523.00;;;23.30
10058;BMP180;5068;51.286;7.518;2023-06-22T07:14:21;99515.00;;;23.30
10058;BMP180;5068;51.286;7.518;2023-06-22T07:15:55;99520.00;;;23.40
10058;BMP180;5068;51.286;7.518;2023-06-22T07:17:28;99507.00;;;23.40
10058;BMP180;5068;51.286;7.518;2023-06-22T07:19:02;99491.00;;;23.50
10058;BMP180;5068;51.286;7.518;2023-06-22T07:20:36;99494.00;;;23.50
10058;BMP180;5068;51.286;7.518;2023-06-22T07:22:09;99504.00;;;23.60
10058;BMP180;5068;51.286;7.518;2023-06-22T07:23:43;99496.00;;;23.60
10058;BMP180;5068;51.286;7.518;2023-06-22T07:25:16;99494.00;;;23.70
10058;BMP180;5068;51.286;7.518;2023-06-22T07:26:50;99489.00;;;23.70
10058;BMP180;5068;51.286;7.518;2023-06-22T07:28:24;99488.00;;;23.80
10058;BMP180;5068;51.286;7.518;2023-06-22T07:29:59;99491.00;;;23.90
10058;BMP180;5068;51.286;7.518;2023-06-22T07:31:32;99479.00;;;23.90
10058;BMP180;5068;51.286;7.518;2023-06-22T07:33:07;99487.00;;;24.00
10058;BMP180;5068;51.286;7.518;2023-06-22T07:34:50;99478.00;;;24.10
10058;BMP180;5068;51.286;7.518;2023-06-22T07:36:35;99478.00;;;24.20
10058;BMP180;5068;51.286;7.518;2023-06-22T07:38:08;99481.00;;;24.20
10058;BMP180;5068;51.286;7.518;2023-06-22T07:39:42;99473.00;;;24.30
10058;BMP180;5068;51.286;7.518;2023-06-22T07:41:15;99460.00;;;24.40
10058;BMP180;5068;51.286;7.518;2023-06-22T07:42:48;99460.00;;;24.50
10058;BMP180;5068;51.286;7.518;2023-06-22T07:44:24;99463.00;;;24.60
10058;BMP180;5068;51.286;7.518;2023-06-22T07:45:59;99444.00;;;24.70
10058;BMP180;5068;51.286;7.518;2023-06-22T07:47:32;99449.00;;;24.80
10058;BMP180;5068;51.286;7.518;2023-06-22T07:49:08;99450.00;;;24.90
10058;BMP180;5068;51.286;7.518;2023-06-22T07:50:41;99466.00;;;25.10
10058;BMP180;5068;51.286;7.518;2023-06-22T07:52:15;99468.00;;;25.20
10058;BMP180;5068;51.286;7.518;2023-06-22T07:53:48;99464.00;;;25.30
10058;BMP180;5068;51.286;7.518;2023-06-22T07:55:22;99470.00;;;25.40
10058;BMP180;5068;51.286;7.518;2023-06-22T07:56:56;99465.00;;;25.50
10058;BMP180;5068;51.286;7.518;2023-06-22T07:58:31;99460.00;;;25.60
10058;BMP180;5068;51.286;7.518;2023-06-22T08:00:09;99450.00;;;25.70
10058;BMP180;5068;51.286;7.518;2023-06-22T08:01:48;99450.00;;;25.80
10058;BMP180;5068;51.286;7.518;2023-06-22T08:03:22;99463.00;;;26.00
10058;BMP180;5068;51.286;7.518;2023-06-22T08:04:55;99452.00;;;26.00
10058;BMP180;5068;51.286;7.518;2023-06-22T08:06:49;99448.00;;;26.20
10058;BMP180;5068;51.286;7.518;2023-06-22T08:08:22;99442.00;;;26.20
10058;BMP180;5068;51.286;7.518;2023-06-22T08:09:56;99446.00;;;26.30
10058;BMP180;5068;51.286;7.518;2023-06-22T08:11:29;99443.00;;;26.40
10058;BMP180;5068;51.286;7.518;2023-06-22T08:13:03;99432.00;;;26.50
10058;BMP180;5068;51.286;7.518;2023-06-22T08:14:38;99448.00;;;26.60
10058;BMP180;5068;51.286;7.518;2023-06-22T08:16:12;99441.00;;;26.70
10058;BMP180;5068;51.286;7.518;2023-06-22T08:17:47;99441.00;;;26.80
10058;BMP180;5068;51.286;7.518;2023-06-22T08:19:24;99445.00;;;26.90
10058;BMP180;5068;51.286;7.518;2023-06-22T08:20:57;99438.00;;;27.00
10058;BMP180;5068;51.286;7.518;2023-06-22T08:22:31;99430.00;;;27.10
10058;BMP180;5068;51.286;7.518;2023-06-22T08:24:06;99437.00;;;27.20
10058;BMP180;5068;51.286;7.518;2023-06-22T08:25:40;99428.00;;;27.30
10058;BMP180;5068;51.286;7.518;2023-06-22T08:27:14;99426.00;;;27.40
10058;BMP180;5068;51.286;7.518;2023-06-22T08:28:49;99415.00;;;27.50
10058;BMP180;5068;51.286;7.518;2023-06-22T08:30:22;99419.00;;;27.60
10058;BMP180;5068;51.286;7.518;2023-06-22T08:31:57;99429.00;;;27.70
10058;BMP180;5068;51.286;7.518;2023-06-22T08:33:32;99424.00;;;27.80
10058;BMP180;5068;51.286;7.518;2023-06-22T08:35:06;99414.00;;;27.90
10058;BMP180;5068;51.286;7.518;2023-06-22T08:36:41;99417.00;;;28.00
10058;BMP180;5068;51.286;7.518;2023-06-22T08:38:17;99414.00;;;28.10
10058;BMP180;5068;51.286;7.518;2023-06-22T08:39:51;99415.00;;;28.10
10058;BMP180;5068;51.286;7.518;2023-06-22T08:41:24;99402.00;;;28.20
10058;BMP180;5068;51.286;7.518;2023-06-22T08:42:58;99413.00;;;28.30
10058;BMP180;5068;51.286;7.518;2023-06-22T08:44:35;99406.00;;;28.30
10058;BMP180;5068;51.286;7.518;2023-06-22T08:46:11;99413.00;;;28.40
10058;BMP180;5068;51.286;7.518;2023-06-22T08:47:45;99413.00;;;28.50
10058;BMP180;5068;51.286;7.518;2023-06-22T08:49:20;99414.00;;;28.60
10058;BMP180;5068;51.286;7.518;2023-06-22T08:50:53;99404.00;;;28.70
10058;BMP180;5068;51.286;7.518;2023-06-22T08:52:27;99411.00;;;28.80
10058;BMP180;5068;51.286;7.518;2023-06-22T08:54:00;99405.00;;;28.90
10058;BMP180;5068;51.286;7.518;2023-06-22T08:55:34;99398.00;;;29.00
10058;BMP180;5068;51.286;7.518;2023-06-22T08:57:08;99397.00;;;29.10
10058;BMP180;5068;51.286;7.518;2023-06-22T08:58:42;99389.00;;;29.10
10058;BMP180;5068;51.286;7.518;2023-06-22T09:00:17;99384.00;;;29.20
10058;BMP180;5068;51.286;7.518;2023-06-22T09:01:52;99393.00;;;29.30
10058;BMP180;5068;51.286;7.518;2023-06-22T09:03:26;99397.00;;;29.40
10058;BMP180;5068;51.286;7.518;2023-06-22T09:05:04;99386.00;;;29.50
10058;BMP180;5068;51.286;7.518;2023-06-22T09:06:38;99391.00;;;29.60
10058;BMP180;5068;51.286;7.518;2023-06-22T09:08:17;99397.00;;;29.60
10058;BMP180;5068;51.286;7.518;2023-06-22T09:09:51;99399.00;;;29.70
10058;BMP180;5068;51.286;7.518;2023-06-22T09:11:25;99381.00;;;29.70
10058;BMP180;5068;51.286;7.518;2023-06-22T09:12:58;99389.00;;;29.80
10058;BMP180;5068;51.286;7.518;2023-06-22T09:14:31;99390.00;;;29.90